KTOL/TOL METAR and TAF weather

Enter ICAO airport designator
Station Type Date Time Source
KTOL METAR 2020/01/18 15:52 UTC NOAA

KTOL 181552Z 20011G18KT 10SM -RA OVC007 02/00 A2977 RMK AO2 CIG 006V011 SLP087 P0005 T00170000 $


Station Type Date Time Source
KTOL Decoded METAR 2020/01/18 15:52 UTC NOAA

TOLEDO EXPRESS AIRPORT, OH, United States (KTOL) 41-35N 083-48W 210M
Jan 18, 2020 - 10:52 AM EST / 2020.01.18 1552 UTC
Wind: from the SSW (200 degrees) at 13 MPH (11 KT) gusting to 21 MPH (18 KT):0
Visibility: 10 mile(s):0
Sky conditions: overcast
Weather: light rain
Precipitation last hour: 0.05 inches
Temperature: 35.1 F (1.7 C)
Dew Point: 32.0 F (0.0 C)
Relative Humidity: 88%
Pressure (altimeter): 29.77 in. Hg (1008 hPa)
ob: KTOL 181552Z 20011G18KT 10SM -RA OVC007 02/00 A2977 RMK AO2 CIG 006V011 SLP087 P0005 T00170000
cycle: 16

Station Type Date Time Source
KTOL TAF 2020/01/18 14:04 UTC NOAA

TAF
AMD KTOL 181402Z 1814/1912 17015G25KT 3SM -RASN OVC008
FM181600 19015G30KT 2SM -RA OVC003 WS020/20045KT
FM182000 23020G30KT P6SM OVC008 WS020/24050KT
FM182300 25020G30KT P6SM OVC015

Example: see airport list